createdAt,value
2019-01-19T00:00:28.709Z,100595.75
2019-01-19T00:02:59.319Z,100591.67
2019-01-19T00:05:33.185Z,100595.17
2019-01-19T00:08:04.124Z,100592.10
2019-01-19T00:10:36.815Z,100592.94
2019-01-19T00:13:09.882Z,100586.40
2019-01-19T00:15:42.793Z,100587.62
2019-01-19T00:18:15.830Z,100592.23
2019-01-19T00:20:51.282Z,100586.23
2019-01-19T00:23:25.953Z,100591.25
2019-01-19T00:26:01.634Z,100592.75
2019-01-19T00:28:33.348Z,100591.44
2019-01-19T00:31:04.146Z,100597.23
2019-01-19T00:33:39.869Z,100594.55
2019-01-19T00:36:11.014Z,100597.80
2019-01-19T00:38:43.844Z,100599.47
2019-01-19T00:41:17.614Z,100599.03
2019-01-19T00:43:47.039Z,100600.58
2019-01-19T00:46:22.077Z,100596.94
2019-01-19T00:48:55.206Z,100598.45
2019-01-19T00:51:28.036Z,100593.97
2019-01-19T00:54:01.551Z,100593.97
2019-01-19T00:56:35.460Z,100595.84
2019-01-19T00:59:07.730Z,100588.72
2019-01-19T01:01:40.442Z,100595.08
2019-01-19T01:04:13.499Z,100596.47
2019-01-19T01:06:48.978Z,100597.48
2019-01-19T01:09:20.777Z,100598.84
2019-01-19T01:11:50.578Z,100590.08
2019-01-19T01:14:24.337Z,100597.80
2019-01-19T01:16:56.622Z,100592.41
2019-01-19T01:19:32.448Z,100600.41
2019-01-19T01:22:06.282Z,100595.54
2019-01-19T01:24:40.018Z,100594.38
2019-01-19T01:27:14.483Z,100597.89
2019-01-19T01:29:47.248Z,100598.17
2019-01-19T01:32:18.173Z,100599.20
2019-01-19T01:34:49.777Z,100599.87
2019-01-19T01:37:21.438Z,100605.50
2019-01-19T01:39:53.049Z,100599.89
2019-01-19T01:42:24.929Z,100600.40
2019-01-19T01:44:56.537Z,100601.83
2019-01-19T01:47:31.489Z,100595.92
2019-01-19T01:50:03.120Z,100597.72
2019-01-19T01:52:36.849Z,100600.22
2019-01-19T01:55:10.151Z,100589.53
2019-01-19T01:57:40.476Z,100587.34
2019-01-19T02:00:12.699Z,100594.02
2019-01-19T02:02:48.575Z,100577.67
2019-01-19T02:05:21.173Z,100582.13
2019-01-19T02:07:53.890Z,100584.90
2019-01-19T02:10:30.779Z,100581.11
2019-01-19T02:13:02.320Z,100576.37
2019-01-19T02:15:33.343Z,100580.91
2019-01-19T02:18:06.961Z,100580.40
2019-01-19T02:20:38.001Z,100578.13
2019-01-19T02:23:12.073Z,100571.84
2019-01-19T02:25:48.800Z,100569.77
2019-01-19T02:28:22.898Z,100571.54
2019-01-19T02:30:57.591Z,100571.50
2019-01-19T02:33:31.413Z,100569.77
2019-01-19T02:36:05.109Z,100571.20
2019-01-19T02:38:37.834Z,100566.42
2019-01-19T02:41:09.736Z,100565.02
2019-01-19T02:43:43.519Z,100560.84
2019-01-19T02:46:19.325Z,100561.23
2019-01-19T02:48:49.594Z,100555.61
2019-01-19T02:51:21.751Z,100547.53
2019-01-19T02:53:54.663Z,100548.89
2019-01-19T02:56:26.548Z,100549.59
2019-01-19T02:59:03.193Z,100544.69
2019-01-19T03:01:35.940Z,100543.98
2019-01-19T03:04:15.667Z,100537.83
2019-01-19T03:06:48.541Z,100539.26
2019-01-19T03:09:24.342Z,100538.58
2019-01-19T03:11:57.357Z,100534.70
2019-01-19T03:14:33.140Z,100533.48
2019-01-19T03:17:07.121Z,100533.34
2019-01-19T03:19:40.912Z,100532.59
2019-01-19T03:22:14.664Z,100526.23
2019-01-19T03:24:50.347Z,100526.23
2019-01-19T03:27:24.185Z,100519.80
2019-01-19T03:29:58.453Z,100519.72
2019-01-19T03:32:31.083Z,100527.16
2019-01-19T03:35:05.981Z,100525.59
2019-01-19T03:37:38.719Z,100523.61
2019-01-19T03:40:13.618Z,100525.40
2019-01-19T03:42:48.688Z,100529.89
2019-01-19T03:45:20.210Z,100524.77
2019-01-19T03:47:54.190Z,100517.61
2019-01-19T03:50:25.241Z,100517.88
2019-01-19T03:52:59.059Z,100518.98
2019-01-19T03:55:31.915Z,100523.98
2019-01-19T03:58:04.533Z,100514.48
2019-01-19T04:00:37.231Z,100512.41
2019-01-19T04:03:11.781Z,100508.87
2019-01-19T04:05:44.190Z,100504.63
2019-01-19T04:08:15.860Z,100506.83
2019-01-19T04:10:49.428Z,100504.92
2019-01-19T04:13:23.226Z,100503.53
2019-01-19T04:15:57.980Z,100500.58
2019-01-19T04:18:33.798Z,100498.63
2019-01-19T04:21:04.798Z,100500.63
2019-01-19T04:23:33.893Z,100490.03
2019-01-19T04:26:03.679Z,100501.28
2019-01-19T04:28:32.265Z,100490.37
2019-01-19T04:31:00.610Z,100493.17
2019-01-19T04:33:28.944Z,100497.11
2019-01-19T04:35:57.311Z,100497.52
2019-01-19T04:38:25.717Z,100498.72
2019-01-19T04:40:55.254Z,100495.09
2019-01-19T04:43:23.597Z,100497.66
2019-01-19T04:45:51.967Z,100494.41
2019-01-19T04:48:21.760Z,100491.40
2019-01-19T04:50:50.116Z,100487.98
2019-01-19T04:53:18.433Z,100493.61
2019-01-19T04:55:46.773Z,100487.52
2019-01-19T04:58:15.098Z,100487.00
2019-01-19T05:00:43.465Z,100483.83
2019-01-19T05:03:12.398Z,100474.75
2019-01-19T05:05:40.757Z,100483.31
2019-01-19T05:08:09.509Z,100484.07
2019-01-19T05:10:37.840Z,100481.14
2019-01-19T05:13:06.164Z,100479.50
2019-01-19T05:15:34.574Z,100482.47
2019-01-19T05:18:03.060Z,100482.11
2019-01-19T05:20:31.421Z,100476.25
2019-01-19T05:22:59.758Z,100479.50
2019-01-19T05:25:28.161Z,100477.11
2019-01-19T05:27:56.525Z,100478.68
2019-01-19T05:30:24.849Z,100473.17
2019-01-19T05:32:53.201Z,100482.92
2019-01-19T05:35:21.749Z,100475.13
2019-01-19T05:37:50.087Z,100475.78
2019-01-19T05:40:18.406Z,100476.06
2019-01-19T05:42:46.741Z,100483.47
2019-01-19T05:45:15.504Z,100479.35
2019-01-19T05:47:43.849Z,100480.53
2019-01-19T05:50:16.121Z,100477.80
2019-01-19T05:52:44.578Z,100475.44
2019-01-19T05:55:13.274Z,100471.77
2019-01-19T05:57:41.611Z,100479.61
2019-01-19T06:00:15.148Z,100481.53
2019-01-19T06:02:43.674Z,100482.31
2019-01-19T06:05:12.865Z,100476.94
2019-01-19T06:07:41.723Z,100477.59
2019-01-19T06:10:12.403Z,100480.95
2019-01-19T06:12:40.748Z,100475.91
2019-01-19T06:15:12.134Z,100472.66
2019-01-19T06:17:40.482Z,100474.91
2019-01-19T06:20:11.847Z,100478.56
2019-01-19T06:22:40.184Z,100479.88
2019-01-19T06:25:09.987Z,100477.22
2019-01-19T06:27:38.322Z,100478.86
2019-01-19T06:30:13.352Z,100481.92
2019-01-19T06:32:41.798Z,100483.63
2019-01-19T06:35:10.808Z,100477.34
2019-01-19T06:37:39.277Z,100478.00
2019-01-19T06:40:12.289Z,100483.09
2019-01-19T06:42:40.626Z,100486.06
2019-01-19T06:45:12.444Z,100488.53
2019-01-19T06:47:40.760Z,100489.81
2019-01-19T06:50:12.482Z,100488.11
2019-01-19T06:52:40.902Z,100492.02
2019-01-19T06:55:11.630Z,100489.97
2019-01-19T06:57:40.067Z,100485.21
2019-01-19T07:00:11.036Z,100489.29
2019-01-19T07:02:39.536Z,100486.88
2019-01-19T07:05:09.635Z,100487.95
2019-01-19T07:07:39.548Z,100490.95
2019-01-19T07:10:12.162Z,100491.44
2019-01-19T07:12:40.594Z,100489.97
2019-01-19T07:15:10.897Z,100492.47
2019-01-19T07:17:39.324Z,100492.39
2019-01-19T07:20:12.488Z,100486.99
2019-01-19T07:22:41.252Z,100492.34
2019-01-19T07:25:10.252Z,100495.95
2019-01-19T07:27:38.564Z,100498.02
2019-01-19T07:30:12.293Z,100495.46
2019-01-19T07:32:40.630Z,100487.96
2019-01-19T07:35:09.755Z,100488.64
2019-01-19T07:37:38.072Z,100494.33
2019-01-19T07:40:08.358Z,100492.09
2019-01-19T07:42:37.739Z,100493.95
2019-01-19T07:45:08.764Z,100488.78
2019-01-19T07:47:37.180Z,100486.05
2019-01-19T07:50:09.671Z,100488.31
2019-01-19T07:52:38.232Z,100487.38
2019-01-19T07:55:08.639Z,100488.81
2019-01-19T07:57:37.489Z,100491.81
2019-01-19T08:00:11.990Z,100492.05
2019-01-19T08:02:40.330Z,100495.63
2019-01-19T08:05:11.096Z,100494.17
2019-01-19T08:07:39.590Z,100498.95
2019-01-19T08:10:11.712Z,100496.06
2019-01-19T08:12:40.145Z,100499.18
2019-01-19T08:15:11.409Z,100503.44
2019-01-19T08:17:39.898Z,100500.09
2019-01-19T08:20:11.327Z,100497.76
2019-01-19T08:22:40.163Z,100496.06
2019-01-19T08:25:10.506Z,100504.91
2019-01-19T08:27:39.034Z,100505.59
2019-01-19T08:30:13.350Z,100506.55
2019-01-19T08:32:41.878Z,100511.20
2019-01-19T08:35:10.884Z,100508.20
2019-01-19T08:37:40.512Z,100503.45
2019-01-19T08:40:17.367Z,100509.00
2019-01-19T08:42:47.659Z,100506.31
2019-01-19T08:45:17.141Z,100503.57
2019-01-19T08:47:45.814Z,100497.35
2019-01-19T08:50:14.329Z,100498.70
2019-01-19T08:52:42.818Z,100503.80
2019-01-19T08:55:11.344Z,100502.92
2019-01-19T08:57:39.711Z,100507.49
2019-01-19T09:00:13.534Z,100507.38
2019-01-19T09:02:41.953Z,100502.34
2019-01-19T09:05:11.018Z,100501.59
2019-01-19T09:07:39.394Z,100507.67
2019-01-19T09:10:12.054Z,100502.16
2019-01-19T09:12:40.392Z,100501.15
2019-01-19T09:15:11.429Z,100493.20
2019-01-19T09:17:39.778Z,100495.70
2019-01-19T09:20:12.097Z,100496.31
2019-01-19T09:22:40.454Z,100498.95
2019-01-19T09:25:12.077Z,100499.67
2019-01-19T09:27:40.624Z,100497.67
2019-01-19T09:30:15.480Z,100502.87
2019-01-19T09:32:44.046Z,100502.47
2019-01-19T09:35:13.622Z,100500.88
2019-01-19T09:37:41.949Z,100501.11
2019-01-19T09:40:13.289Z,100499.11
2019-01-19T09:42:41.933Z,100499.67
2019-01-19T09:45:14.283Z,100495.04
2019-01-19T09:47:43.111Z,100490.27
2019-01-19T09:50:13.396Z,100494.77
2019-01-19T09:52:41.897Z,100498.60
2019-01-19T09:55:11.817Z,100493.37
2019-01-19T09:57:40.363Z,100495.36
2019-01-19T10:00:14.859Z,100489.73
2019-01-19T10:02:44.514Z,100487.20
2019-01-19T10:05:17.847Z,100488.05
2019-01-19T10:07:48.693Z,100482.92
2019-01-19T10:10:19.290Z,100474.14
2019-01-19T10:12:47.695Z,100474.73
2019-01-19T10:15:17.905Z,100471.19
2019-01-19T10:17:46.382Z,100469.98
2019-01-19T10:20:18.243Z,100468.69
2019-01-19T10:22:46.653Z,100466.14
2019-01-19T10:25:15.753Z,100467.19
2019-01-19T10:27:44.415Z,100467.00
2019-01-19T10:30:15.121Z,100464.70
2019-01-19T10:32:43.442Z,100457.27
2019-01-19T10:35:12.830Z,100460.50
2019-01-19T10:37:41.310Z,100460.16
2019-01-19T10:40:14.518Z,100452.95
2019-01-19T10:42:42.849Z,100444.33
2019-01-19T10:45:15.342Z,100451.66
2019-01-19T10:47:43.818Z,100444.47
2019-01-19T10:50:15.280Z,100441.58
2019-01-19T10:52:43.744Z,100434.03
2019-01-19T10:55:14.353Z,100434.03
2019-01-19T10:57:42.732Z,100426.96
2019-01-19T11:00:16.262Z,100430.42
2019-01-19T11:02:44.605Z,100418.65
2019-01-19T11:05:14.054Z,100424.55
2019-01-19T11:07:45.695Z,100415.66
2019-01-19T11:10:19.347Z,100414.05
2019-01-19T11:12:47.673Z,100412.00
2019-01-19T11:15:18.268Z,100415.66
2019-01-19T11:17:46.865Z,100406.67
2019-01-19T11:20:16.386Z,100396.84
2019-01-19T11:22:44.771Z,100399.92
2019-01-19T11:25:14.193Z,100396.75
2019-01-19T11:27:42.742Z,100388.30
2019-01-19T11:30:16.021Z,100384.34
2019-01-19T11:32:44.607Z,100380.53
2019-01-19T11:35:13.621Z,100382.34
2019-01-19T11:37:42.033Z,100371.56
2019-01-19T11:40:13.697Z,100368.84
2019-01-19T11:42:43.707Z,100363.64
2019-01-19T11:45:15.452Z,100359.05
2019-01-19T11:47:43.801Z,100351.04
2019-01-19T11:50:12.646Z,100346.40
2019-01-19T11:52:41.045Z,100348.69
2019-01-19T11:55:12.750Z,100341.80
2019-01-19T11:57:41.157Z,100331.30
2019-01-19T12:00:16.998Z,100322.27
2019-01-19T12:02:45.403Z,100327.27
2019-01-19T12:05:13.858Z,100321.94
2019-01-19T12:07:42.233Z,100319.91
2019-01-19T12:10:19.517Z,100306.91
2019-01-19T12:12:48.013Z,100303.87
2019-01-19T12:15:16.579Z,100304.06
2019-01-19T12:17:45.183Z,100298.13
2019-01-19T12:20:15.184Z,100293.30
2019-01-19T12:22:43.553Z,100288.36
2019-01-19T12:25:15.314Z,100284.67
2019-01-19T12:27:43.760Z,100272.30
2019-01-19T12:30:14.685Z,100271.25
2019-01-19T12:32:43.205Z,100270.42
2019-01-19T12:35:11.803Z,100265.69
2019-01-19T12:37:40.193Z,100261.48
2019-01-19T12:40:12.242Z,100257.94
2019-01-19T12:42:40.722Z,100246.87
2019-01-19T12:45:12.279Z,100245.93
2019-01-19T12:47:40.663Z,100240.34
2019-01-19T12:50:14.413Z,100237.66
2019-01-19T12:52:42.748Z,100235.06
2019-01-19T12:55:12.870Z,100236.08
2019-01-19T12:57:41.333Z,100237.50
2019-01-19T13:00:12.335Z,100234.40
2019-01-19T13:02:40.799Z,100230.51
2019-01-19T13:05:14.025Z,100212.81
2019-01-19T13:07:42.358Z,100220.64
2019-01-19T13:10:15.440Z,100211.20
2019-01-19T13:12:44.034Z,100204.36
2019-01-19T13:15:17.847Z,100210.09
2019-01-19T13:17:51.465Z,100202.98
2019-01-19T13:20:24.312Z,100197.69
2019-01-19T13:22:58.009Z,100189.73
2019-01-19T13:25:29.647Z,100184.31
2019-01-19T13:28:06.371Z,100177.05
2019-01-19T13:30:39.428Z,100181.22
2019-01-19T13:33:12.383Z,100167.16
2019-01-19T13:35:45.274Z,100172.89
2019-01-19T13:38:19.998Z,100163.82
2019-01-19T13:40:55.643Z,100164.09
2019-01-19T13:43:28.153Z,100160.30
2019-01-19T13:46:01.849Z,100159.87
2019-01-19T13:48:32.803Z,100158.68
2019-01-19T13:51:06.936Z,100157.97
2019-01-19T13:53:41.732Z,100156.22
2019-01-19T13:56:15.631Z,100152.09
2019-01-19T13:58:49.375Z,100150.40
2019-01-19T14:01:24.826Z,100141.32
2019-01-19T14:03:57.979Z,100145.14
2019-01-19T14:06:30.765Z,100142.33
2019-01-19T14:09:04.613Z,100135.98
2019-01-19T14:11:36.321Z,100136.55
2019-01-19T14:14:09.989Z,100129.56
2019-01-19T14:16:42.952Z,100130.92
2019-01-19T14:19:14.946Z,100120.75
2019-01-19T14:21:50.588Z,100118.33
2019-01-19T14:24:21.580Z,100123.90
2019-01-19T14:26:54.601Z,100116.79
2019-01-19T14:29:27.755Z,100116.24
2019-01-19T14:32:03.543Z,100123.41
2019-01-19T14:34:37.755Z,100116.37
2019-01-19T14:37:11.351Z,100113.25
2019-01-19T14:39:44.503Z,100105.70
2019-01-19T14:42:17.077Z,100095.70
2019-01-19T14:44:51.845Z,100104.23
2019-01-19T14:47:24.257Z,100101.48
2019-01-19T14:49:57.990Z,100100.05
2019-01-19T14:52:32.818Z,100097.33
2019-01-19T14:55:04.650Z,100100.16
2019-01-19T14:57:38.458Z,100094.20
2019-01-19T15:00:12.021Z,100089.87
2019-01-19T15:02:45.800Z,100092.22
2019-01-19T15:05:20.753Z,100086.90
2019-01-19T15:07:53.465Z,100082.94
2019-01-19T15:10:27.445Z,100085.12
2019-01-19T15:13:01.302Z,100084.97
2019-01-19T15:15:34.024Z,100090.06
2019-01-19T15:18:08.061Z,100087.52
2019-01-19T15:20:41.995Z,100079.92
2019-01-19T15:23:14.885Z,100090.34
2019-01-19T15:25:51.562Z,100083.25
2019-01-19T15:28:26.366Z,100082.30
2019-01-19T15:31:00.097Z,100079.45
2019-01-19T15:33:35.820Z,100074.57
2019-01-19T15:36:11.113Z,100076.33
2019-01-19T15:38:41.665Z,100075.30
2019-01-19T15:41:16.500Z,100067.23
2019-01-19T15:43:49.532Z,100078.36
2019-01-19T15:46:25.719Z,100074.69
2019-01-19T15:48:59.752Z,100076.64
2019-01-19T15:51:33.483Z,100079.84
2019-01-19T15:54:08.375Z,100077.91
2019-01-19T15:56:44.174Z,100069.06
2019-01-19T15:59:17.112Z,100071.07
2019-01-19T16:01:52.382Z,100077.08
2019-01-19T16:04:25.416Z,100072.53
2019-01-19T16:06:59.420Z,100078.80
2019-01-19T16:09:33.168Z,100076.64
2019-01-19T16:12:06.701Z,100079.70
2019-01-19T16:14:38.504Z,100082.05
2019-01-19T16:17:12.286Z,100090.47
2019-01-19T16:19:44.793Z,100091.52
2019-01-19T16:22:16.911Z,100087.07
2019-01-19T16:24:51.753Z,100086.22
2019-01-19T16:27:25.689Z,100083.92
2019-01-19T16:29:57.036Z,100071.88
2019-01-19T16:32:29.918Z,100086.95
2019-01-19T16:35:01.629Z,100081.64
2019-01-19T16:37:34.856Z,100084.04
2019-01-19T16:40:10.792Z,100080.67
2019-01-19T16:42:43.423Z,100080.88
2019-01-19T16:45:18.674Z,100084.53
2019-01-19T16:47:54.544Z,100087.11
2019-01-19T16:50:29.504Z,100083.63
2019-01-19T16:56:19.556Z,100093.87
2019-01-19T16:58:53.073Z,100093.24
2019-01-19T17:01:24.874Z,100089.51
2019-01-19T17:03:58.650Z,100091.34
2019-01-19T17:06:33.364Z,100092.04
2019-01-19T17:09:06.137Z,100094.55
2019-01-19T17:11:40.968Z,100092.73
2019-01-19T17:14:13.789Z,100084.13
2019-01-19T17:16:47.385Z,100089.62
2019-01-19T17:19:22.282Z,100090.99
2019-01-19T17:21:56.005Z,100082.39
2019-01-19T17:24:27.025Z,100081.92
2019-01-19T17:26:59.747Z,100084.27
2019-01-19T17:29:33.674Z,100085.73
2019-01-19T17:32:07.804Z,100084.14
2019-01-19T17:34:41.894Z,100086.02
2019-01-19T17:37:15.493Z,100083.64
2019-01-19T17:39:51.500Z,100090.59
2019-01-19T17:42:26.566Z,100087.34
2019-01-19T17:45:00.310Z,100085.13
2019-01-19T17:47:35.992Z,100085.39
2019-01-19T17:50:10.111Z,100083.72
2019-01-19T17:52:46.149Z,100086.01
2019-01-19T17:55:20.226Z,100087.87
2019-01-19T17:57:56.015Z,100086.81
2019-01-19T18:00:31.899Z,100093.83
2019-01-19T18:03:05.978Z,100089.05
2019-01-19T18:05:39.258Z,100086.01
2019-01-19T18:08:12.421Z,100084.88
2019-01-19T18:10:44.878Z,100080.09
2019-01-19T18:13:17.070Z,100085.16
2019-01-19T18:15:52.057Z,100078.00
2019-01-19T18:18:23.165Z,100078.70
2019-01-19T18:20:56.926Z,100081.70
2019-01-19T18:23:29.863Z,100076.34
2019-01-19T18:26:00.740Z,100081.39
2019-01-19T18:28:34.517Z,100081.52
2019-01-19T18:31:08.388Z,100078.97
2019-01-19T18:33:41.232Z,100080.91
2019-01-19T18:36:15.367Z,100082.45
2019-01-19T18:38:48.142Z,100073.57
2019-01-19T18:41:21.883Z,100080.31
2019-01-19T18:43:53.637Z,100076.70
2019-01-19T18:46:26.958Z,100077.13
2019-01-19T18:49:00.844Z,100069.92
2019-01-19T18:51:33.636Z,100075.58
2019-01-19T18:54:04.356Z,100074.41
2019-01-19T18:56:38.087Z,100079.22
2019-01-19T18:59:12.053Z,100078.70
2019-01-19T19:01:45.275Z,100078.94
2019-01-19T19:04:18.169Z,100077.34
2019-01-19T19:06:50.993Z,100074.22
2019-01-19T19:09:25.686Z,100070.03
2019-01-19T19:11:59.291Z,100069.41
2019-01-19T19:14:33.221Z,100072.46
2019-01-19T19:17:03.967Z,100075.38
2019-01-19T19:19:37.797Z,100067.42
2019-01-19T19:22:14.800Z,100065.77
2019-01-19T19:24:48.479Z,100069.89
2019-01-19T19:27:22.294Z,100064.49
2019-01-19T19:29:54.260Z,100066.29
2019-01-19T19:32:25.380Z,100064.63
2019-01-19T19:34:59.162Z,100063.97
2019-01-19T19:37:34.845Z,100069.66
2019-01-19T19:40:10.165Z,100067.03
2019-01-19T19:42:41.605Z,100057.77
2019-01-19T19:45:14.003Z,100062.11
2019-01-19T19:47:46.898Z,100060.45
2019-01-19T19:50:19.093Z,100062.38
2019-01-19T19:52:47.646Z,100063.44
2019-01-19T19:55:15.553Z,100060.67
2019-01-19T19:57:44.203Z,100060.80
2019-01-19T20:00:13.405Z,100058.38
2019-01-19T20:02:41.847Z,100062.78
2019-01-19T20:05:11.444Z,100062.70
2019-01-19T20:07:39.859Z,100059.04
2019-01-19T20:10:17.055Z,100062.53
2019-01-19T20:12:41.870Z,100059.64
2019-01-19T20:15:10.963Z,100064.23
2019-01-19T20:17:39.334Z,100061.24
2019-01-19T20:20:11.324Z,100061.82
2019-01-19T20:22:39.692Z,100058.86
2019-01-19T20:25:08.829Z,100057.67
2019-01-19T20:27:37.214Z,100058.51
2019-01-19T20:30:10.424Z,100061.26
2019-01-19T20:32:38.751Z,100067.36
2019-01-19T20:35:07.750Z,100068.42
2019-01-19T20:37:36.261Z,100070.95
2019-01-19T20:40:06.806Z,100068.80
2019-01-19T20:42:35.140Z,100071.92
2019-01-19T20:45:05.289Z,100067.75
2019-01-19T20:47:33.705Z,100067.37
2019-01-19T20:50:02.289Z,100066.99
2019-01-19T20:52:30.614Z,100063.91
2019-01-19T20:54:58.965Z,100056.00
2019-01-19T20:57:27.291Z,100063.30
2019-01-19T20:59:55.699Z,100068.45
2019-01-19T21:02:24.012Z,100066.88
2019-01-19T21:04:52.350Z,100069.98
2019-01-19T21:07:20.690Z,100076.20
2019-01-19T21:09:49.033Z,100074.89
2019-01-19T21:12:17.368Z,100074.19
2019-01-19T21:14:45.993Z,100077.87
2019-01-19T21:17:14.329Z,100071.69
2019-01-19T21:19:42.869Z,100067.48
2019-01-19T21:22:11.602Z,100071.30
2019-01-19T21:24:40.034Z,100070.84
2019-01-19T21:27:08.360Z,100072.53
2019-01-19T21:29:36.682Z,100081.01
2019-01-19T21:32:05.108Z,100080.05
2019-01-19T21:34:33.606Z,100080.90
2019-01-19T21:37:02.009Z,100078.72
2019-01-19T21:39:30.426Z,100077.66
2019-01-19T21:41:58.751Z,100071.45
2019-01-19T21:44:27.124Z,100071.31
2019-01-19T21:46:55.458Z,100073.58
2019-01-19T21:49:23.813Z,100073.23
2019-01-19T21:51:52.246Z,100076.71
2019-01-19T21:54:20.556Z,100072.16
2019-01-19T21:56:48.898Z,100073.23
2019-01-19T21:59:17.243Z,100077.05
2019-01-19T22:01:45.602Z,100072.97
2019-01-19T22:04:13.934Z,100076.20
2019-01-19T22:06:42.362Z,100075.60
2019-01-19T22:09:11.202Z,100072.47
2019-01-19T22:11:39.781Z,100067.58
2019-01-19T22:14:08.135Z,100079.88
2019-01-19T22:16:36.505Z,100064.45
2019-01-19T22:19:04.837Z,100069.83
2019-01-19T22:21:33.339Z,100076.04
2019-01-19T22:24:01.995Z,100070.04
2019-01-19T22:26:30.574Z,100074.48
2019-01-19T22:28:59.016Z,100067.30
2019-01-19T22:31:27.358Z,100078.16
2019-01-19T22:33:55.767Z,100080.05
2019-01-19T22:36:24.113Z,100072.16
2019-01-19T22:38:53.162Z,100074.19
2019-01-19T22:41:21.569Z,100069.62
2019-01-19T22:43:49.917Z,100073.47
2019-01-19T22:46:18.320Z,100069.53
2019-01-19T22:48:46.680Z,100058.45
2019-01-19T22:51:15.022Z,100070.52
2019-01-19T22:53:43.359Z,100066.91
2019-01-19T22:56:12.705Z,100069.41
2019-01-19T22:58:41.092Z,100070.57
2019-01-19T23:01:14.950Z,100068.90
2019-01-19T23:03:43.322Z,100061.73
2019-01-19T23:06:12.378Z,100064.01
2019-01-19T23:08:40.729Z,100059.35
2019-01-19T23:11:09.252Z,100064.00
2019-01-19T23:13:37.609Z,100063.53
2019-01-19T23:16:06.072Z,100060.66
2019-01-19T23:18:34.606Z,100065.56
2019-01-19T23:21:02.970Z,100062.70
2019-01-19T23:23:31.305Z,100068.86
2019-01-19T23:26:01.617Z,100066.84
2019-01-19T23:28:30.057Z,100073.52
2019-01-19T23:30:58.389Z,100068.51
2019-01-19T23:33:26.882Z,100069.78
2019-01-19T23:35:55.270Z,100071.45
2019-01-19T23:38:23.680Z,100062.64
2019-01-19T23:40:52.095Z,100058.28
2019-01-19T23:43:20.497Z,100056.20
2019-01-19T23:45:48.916Z,100053.95
2019-01-19T23:48:17.326Z,100052.91
2019-01-19T23:50:45.665Z,100059.55
2019-01-19T23:53:13.994Z,100054.25
2019-01-19T23:55:42.368Z,100051.95
2019-01-19T23:58:11.108Z,100052.75
